createdAt,value
2019-04-12T00:01:03.764Z,102166.22
2019-04-12T00:03:33.401Z,102172.87
2019-04-12T00:06:03.357Z,102176.50
2019-04-12T00:08:32.994Z,102171.70
2019-04-12T00:11:02.354Z,102180.22
2019-04-12T00:13:32.994Z,102178.47
2019-04-12T00:16:02.354Z,102178.05
2019-04-12T00:18:32.017Z,102177.22
2019-04-12T00:21:01.392Z,102180.11
2019-04-12T00:23:31.000Z,102180.23
2019-04-12T00:26:00.699Z,102175.81
2019-04-12T00:28:30.369Z,102170.72
2019-04-12T00:31:00.037Z,102172.62
2019-04-12T00:33:29.493Z,102175.28
2019-04-12T00:35:59.429Z,102175.14
2019-04-12T00:38:29.169Z,102169.73
2019-04-12T00:41:01.936Z,102176.41
2019-04-12T00:43:31.253Z,102176.05
2019-04-12T00:46:01.409Z,102178.87
2019-04-12T00:48:31.371Z,102178.52
2019-04-12T00:51:01.040Z,102170.52
2019-04-12T00:53:30.393Z,102179.00
2019-04-12T00:55:59.769Z,102179.86
2019-04-12T00:58:29.373Z,102169.95
2019-04-12T01:01:00.364Z,102175.70
2019-04-12T01:03:31.095Z,102177.55
2019-04-12T01:06:00.481Z,102178.02
2019-04-12T01:08:30.127Z,102168.26
2019-04-12T01:11:09.254Z,102168.26
2019-04-12T01:13:39.858Z,102168.26
2019-04-12T01:16:09.343Z,102170.98
2019-04-12T01:18:38.702Z,102165.23
2019-04-12T01:21:08.404Z,102168.85
2019-04-12T01:23:41.039Z,102176.92
2019-04-12T01:26:09.213Z,102174.81
2019-04-12T01:28:38.567Z,102173.48
2019-04-12T01:31:08.226Z,102171.73
2019-04-12T01:33:37.580Z,102169.03
2019-04-12T01:36:07.202Z,102169.48
2019-04-12T01:38:36.845Z,102173.96
2019-04-12T01:41:06.233Z,102170.88
2019-04-12T01:43:36.567Z,102170.98
2019-04-12T01:46:06.251Z,102177.30
2019-04-12T01:48:35.898Z,102173.74
2019-04-12T01:51:05.265Z,102173.74
2019-04-12T01:53:34.902Z,102177.66
2019-04-12T01:56:04.338Z,102178.10
2019-04-12T01:58:33.700Z,102177.75
2019-04-12T02:01:03.380Z,102174.72
2019-04-12T02:03:32.739Z,102175.14
2019-04-12T02:06:02.326Z,102174.37
2019-04-12T02:08:31.747Z,102170.78
2019-04-12T02:11:01.347Z,102174.88
2019-04-12T02:13:30.738Z,102172.28
2019-04-12T02:16:00.380Z,102172.41
2019-04-12T02:18:29.758Z,102169.76
2019-04-12T02:20:59.430Z,102172.84
2019-04-12T02:23:31.238Z,102170.23
2019-04-12T02:26:01.369Z,102167.62
2019-04-12T02:28:32.377Z,102167.66
2019-04-12T02:31:03.537Z,102170.30
2019-04-12T02:33:32.915Z,102160.98
2019-04-12T02:36:02.370Z,102162.08
2019-04-12T02:38:31.732Z,102166.64
2019-04-12T02:41:02.293Z,102167.50
2019-04-12T02:43:31.802Z,102166.58
2019-04-12T02:46:03.537Z,102166.08
2019-04-12T02:48:39.152Z,102163.35
2019-04-12T02:51:11.702Z,102165.60
2019-04-12T02:53:53.587Z,102170.11
2019-04-12T02:56:40.093Z,102167.41
2019-04-12T02:59:14.535Z,102164.35
2019-04-12T03:01:45.369Z,102166.16
2019-04-12T03:04:15.165Z,102166.72
2019-04-12T03:06:44.964Z,102176.14
2019-04-12T03:09:14.893Z,102168.64
2019-04-12T03:11:44.989Z,102171.73
2019-04-12T03:14:14.765Z,102173.62
2019-04-12T03:16:46.825Z,102177.18
2019-04-12T03:19:16.672Z,102170.03
2019-04-12T03:21:46.301Z,102175.31
2019-04-12T03:24:15.810Z,102174.88
2019-04-12T03:26:45.821Z,102180.20
2019-04-12T03:29:15.482Z,102172.62
2019-04-12T03:31:44.842Z,102177.45
2019-04-12T03:34:14.891Z,102171.01
2019-04-12T03:36:44.722Z,102179.20
2019-04-12T03:39:14.458Z,102180.96
2019-04-12T03:41:43.817Z,102180.96
2019-04-12T03:44:13.537Z,102183.23
2019-04-12T03:46:42.992Z,102183.77
2019-04-12T03:49:13.027Z,102183.38
2019-04-12T03:51:43.601Z,102177.66
2019-04-12T03:54:13.898Z,102186.02
2019-04-12T03:56:43.563Z,102187.77
2019-04-12T03:59:22.222Z,102180.81
2019-04-12T04:01:55.455Z,102182.20
2019-04-12T04:04:25.115Z,102174.73
2019-04-12T04:06:55.418Z,102179.20
2019-04-12T04:09:25.344Z,102180.04
2019-04-12T04:11:55.722Z,102180.95
2019-04-12T04:14:25.100Z,102174.28
2019-04-12T04:17:12.270Z,102180.95
2019-04-12T04:19:43.284Z,102179.67
2019-04-12T04:22:14.085Z,102181.45
2019-04-12T04:24:45.470Z,102179.20
2019-04-12T04:27:22.156Z,102179.81
2019-04-12T04:30:06.154Z,102179.81
2019-04-12T04:32:40.120Z,102177.70
2019-04-12T04:35:09.714Z,102185.28
2019-04-12T04:37:40.555Z,102181.30
2019-04-12T04:40:10.581Z,102182.20
2019-04-12T04:42:40.017Z,102186.69
2019-04-12T04:45:09.807Z,102179.16
2019-04-12T04:50:27.951Z,102181.72
2019-04-12T04:52:57.626Z,102177.49
2019-04-12T04:58:50.561Z,102187.38
2019-04-12T05:01:20.285Z,102186.95
2019-04-12T05:03:49.876Z,102192.00
2019-04-12T05:06:19.517Z,102190.30
2019-04-12T05:09:28.924Z,102196.42
2019-04-12T05:11:58.882Z,102196.11
2019-04-12T05:14:28.915Z,102192.47
2019-04-12T05:16:58.288Z,102194.36
2019-04-12T05:19:28.030Z,102194.80
2019-04-12T05:25:18.574Z,102203.63
2019-04-12T05:27:48.019Z,102200.59
2019-04-12T05:33:40.832Z,102207.21
2019-04-12T05:36:10.264Z,102209.80
2019-04-12T05:38:39.895Z,102215.55
2019-04-12T05:41:09.272Z,102215.45
2019-04-12T05:43:57.982Z,102214.95
2019-04-12T05:46:46.780Z,102218.45
2019-04-12T05:49:35.253Z,102216.10
2019-04-12T05:58:28.165Z,102218.33
2019-04-12T06:01:17.544Z,102221.78
2019-04-12T06:06:27.357Z,102221.52
2019-04-12T06:08:56.932Z,102225.05
2019-04-12T06:11:26.289Z,102221.52
2019-04-12T06:14:35.903Z,102229.83
2019-04-12T06:17:05.263Z,102224.97
2019-04-12T06:20:14.823Z,102231.14
2019-04-12T06:22:44.034Z,102231.00
2019-04-12T06:25:46.786Z,102241.13
2019-04-12T06:28:16.412Z,102241.13
2019-04-12T06:33:54.963Z,102241.75
2019-04-12T06:39:13.326Z,102237.94
2019-04-12T06:41:43.061Z,102243.08
2019-04-12T06:44:13.360Z,102246.00
2019-04-12T06:46:42.842Z,102248.02
2019-04-12T06:49:13.249Z,102244.58
2019-04-12T06:51:42.908Z,102244.96
2019-04-12T06:54:13.212Z,102243.45
2019-04-12T07:05:28.676Z,102241.94
2019-04-12T07:10:52.433Z,102240.82
2019-04-12T07:13:22.378Z,102233.27
2019-04-12T07:15:52.001Z,102230.42
2019-04-12T07:18:21.387Z,102226.25
2019-04-12T07:20:50.748Z,102227.59
2019-04-12T07:23:20.483Z,102226.83
2019-04-12T07:25:50.115Z,102228.27
2019-04-12T07:28:19.489Z,102222.58
2019-04-12T07:30:56.729Z,102220.48
2019-04-12T07:33:38.204Z,102219.89
2019-04-12T07:36:07.561Z,102219.89
2019-04-12T07:38:50.510Z,102213.34
2019-04-12T07:41:20.232Z,102213.34
2019-04-12T07:43:49.611Z,102217.93
2019-04-12T07:46:19.255Z,102219.63
2019-04-12T07:48:48.928Z,102216.63
2019-04-12T07:51:37.405Z,102223.58
2019-04-12T07:59:45.070Z,102223.17
2019-04-12T08:05:29.387Z,102218.77
2019-04-12T08:10:54.505Z,102229.46
2019-04-12T08:13:24.180Z,102224.81
2019-04-12T08:15:53.545Z,102224.81
2019-04-12T08:18:23.078Z,102219.94
2019-04-12T08:20:52.459Z,102219.53
2019-04-12T08:23:22.129Z,102225.38
2019-04-12T08:25:51.487Z,102217.49
2019-04-12T08:28:21.165Z,102229.62
2019-04-12T08:30:50.839Z,102226.63
2019-04-12T08:33:20.347Z,102232.95
2019-04-12T08:35:50.004Z,102241.09
2019-04-12T08:38:19.412Z,102248.21
2019-04-12T08:40:49.067Z,102247.97
2019-04-12T08:43:18.456Z,102245.38
2019-04-12T08:45:48.113Z,102237.20
2019-04-12T08:48:17.526Z,102238.74
2019-04-12T08:50:47.155Z,102233.13
2019-04-12T08:53:16.791Z,102230.27
2019-04-12T08:55:46.267Z,102232.48
2019-04-12T08:58:15.693Z,102243.45
2019-04-12T09:00:45.341Z,102231.97
2019-04-12T09:03:14.873Z,102223.08
2019-04-12T09:06:05.152Z,102234.75
2019-04-12T09:11:17.566Z,102227.53
2019-04-12T09:13:47.219Z,102236.02
2019-04-12T09:16:16.933Z,102234.52
2019-04-12T09:18:53.671Z,102239.21
2019-04-12T09:21:28.871Z,102236.13
2019-04-12T09:24:00.227Z,102239.86
2019-04-12T09:26:29.883Z,102239.06
2019-04-12T09:28:59.327Z,102237.31
2019-04-12T09:31:28.693Z,102232.61
2019-04-12T09:33:58.320Z,102225.55
2019-04-12T09:36:27.743Z,102227.69
2019-04-12T09:38:57.209Z,102234.19
2019-04-12T09:41:26.566Z,102234.19
2019-04-12T09:43:56.227Z,102232.94
2019-04-12T09:46:25.584Z,102237.19
2019-04-12T09:48:55.289Z,102239.55
2019-04-12T09:51:24.720Z,102240.63
2019-04-12T09:53:54.551Z,102246.34
2019-04-12T09:56:24.063Z,102236.01
2019-04-12T09:58:53.434Z,102249.51
2019-04-12T10:01:23.268Z,102241.85
2019-04-12T10:03:53.612Z,102246.87
2019-04-12T10:06:23.263Z,102250.05
2019-04-12T10:08:54.624Z,102249.74
2019-04-12T10:11:24.538Z,102248.64
2019-04-12T10:13:55.490Z,102245.54
2019-04-12T10:16:25.078Z,102243.02
2019-04-12T10:18:54.500Z,102247.41
2019-04-12T10:21:23.802Z,102255.27
2019-04-12T10:23:53.366Z,102249.55
2019-04-12T10:26:22.711Z,102243.94
2019-04-12T10:28:53.513Z,102252.87
2019-04-12T10:31:22.939Z,102252.81
2019-04-12T10:33:52.955Z,102245.36
2019-04-12T10:36:22.604Z,102242.27
2019-04-12T10:38:59.821Z,102241.41
2019-04-12T10:41:29.438Z,102240.34
2019-04-12T10:44:16.479Z,102239.01
2019-04-12T10:46:47.959Z,102234.02
2019-04-12T10:49:31.338Z,102233.89
2019-04-12T10:52:08.283Z,102239.92
2019-04-12T10:54:55.417Z,102227.18
2019-04-12T10:57:25.351Z,102229.89
2019-04-12T10:59:54.712Z,102233.78
2019-04-12T11:02:24.423Z,102234.20
2019-04-12T11:04:53.793Z,102224.34
2019-04-12T11:07:23.535Z,102225.35
2019-04-12T11:09:52.900Z,102225.09
2019-04-12T11:12:24.271Z,102222.08
2019-04-12T11:14:55.142Z,102214.81
2019-04-12T11:17:24.988Z,102214.98
2019-04-12T11:19:54.523Z,102215.23
2019-04-12T11:22:23.881Z,102209.86
2019-04-12T11:24:53.481Z,102218.22
2019-04-12T11:27:23.037Z,102215.55
2019-04-12T11:29:54.099Z,102214.42
2019-04-12T11:32:23.682Z,102218.59
2019-04-12T11:34:53.056Z,102210.38
2019-04-12T11:37:23.549Z,102213.86
2019-04-12T11:39:52.924Z,102210.00
2019-04-12T11:42:22.580Z,102204.16
2019-04-12T11:44:52.337Z,102204.97
2019-04-12T11:47:22.037Z,102206.25
2019-04-12T11:49:51.576Z,102212.02
2019-04-12T11:52:20.929Z,102218.50
2019-04-12T11:54:50.544Z,102209.28
2019-04-12T11:57:19.899Z,102208.10
2019-04-12T11:59:49.548Z,102207.39
2019-04-12T12:02:30.017Z,102203.19
2019-04-12T12:05:01.342Z,102203.19
2019-04-12T12:07:49.188Z,102202.74
2019-04-12T12:10:21.213Z,102196.86
2019-04-12T12:12:58.029Z,102196.86
2019-04-12T12:15:34.892Z,102206.46
2019-04-12T12:18:09.274Z,102201.89
2019-04-12T12:20:38.649Z,102200.27
2019-04-12T12:23:08.005Z,102200.92
2019-04-12T12:25:37.620Z,102203.16
2019-04-12T12:28:06.983Z,102203.16
2019-04-12T12:30:36.648Z,102196.50
2019-04-12T12:33:05.995Z,102196.50
2019-04-12T12:35:35.647Z,102189.46
2019-04-12T12:38:05.004Z,102191.50
2019-04-12T12:40:34.576Z,102194.80
2019-04-12T12:43:03.930Z,102194.80
2019-04-12T12:45:33.556Z,102186.14
2019-04-12T12:48:02.909Z,102186.14
2019-04-12T12:50:32.612Z,102195.92
2019-04-12T12:53:02.027Z,102196.89
2019-04-12T12:55:32.572Z,102203.48
2019-04-12T12:58:03.678Z,102197.98
2019-04-12T13:00:33.403Z,102201.44
2019-04-12T13:03:03.018Z,102206.77
2019-04-12T13:05:34.349Z,102201.83
2019-04-12T13:08:03.929Z,102196.02
2019-04-12T13:10:33.587Z,102184.95
2019-04-12T13:13:02.947Z,102184.95
2019-04-12T13:15:33.625Z,102181.59
2019-04-12T13:18:02.997Z,102182.25
2019-04-12T13:20:32.730Z,102176.32
2019-04-12T13:23:02.090Z,102177.59
2019-04-12T13:25:31.757Z,102179.17
2019-04-12T13:28:01.117Z,102172.36
2019-04-12T13:30:47.025Z,102175.52
2019-04-12T13:33:34.665Z,102166.03
2019-04-12T13:36:24.277Z,102166.03
2019-04-12T13:38:57.888Z,102168.31
2019-04-12T13:41:27.257Z,102168.31
2019-04-12T13:43:56.723Z,102154.25
2019-04-12T13:46:26.469Z,102152.94
2019-04-12T13:48:56.091Z,102154.06
2019-04-12T13:51:25.833Z,102153.30
2019-04-12T13:53:55.194Z,102165.04
2019-04-12T13:56:24.862Z,102161.53
2019-04-12T13:58:54.215Z,102163.29
2019-04-12T14:01:24.406Z,102173.34
2019-04-12T14:03:54.398Z,102173.34
2019-04-12T14:06:23.817Z,102171.05
2019-04-12T14:08:53.174Z,102170.37
2019-04-12T14:11:22.837Z,102174.36
2019-04-12T14:13:52.193Z,102174.36
2019-04-12T14:16:21.743Z,102164.38
2019-04-12T14:18:51.109Z,102158.09
2019-04-12T14:21:20.515Z,102157.59
2019-04-12T14:23:49.916Z,102156.17
2019-04-12T14:26:19.285Z,102156.17
2019-04-12T14:28:48.832Z,102159.13
2019-04-12T14:31:19.854Z,102152.98
2019-04-12T14:33:50.925Z,102149.05
2019-04-12T14:36:39.972Z,102151.05
2019-04-12T14:39:11.103Z,102139.09
2019-04-12T14:41:40.471Z,102146.51
2019-04-12T14:44:14.253Z,102142.23
2019-04-12T14:46:45.610Z,102138.34
2019-04-12T14:49:15.931Z,102138.34
2019-04-12T14:51:45.303Z,102136.26
2019-04-12T14:54:14.943Z,102139.82
2019-04-12T14:56:44.315Z,102138.14
2019-04-12T14:59:14.524Z,102143.81
2019-04-12T15:01:43.901Z,102143.43
2019-04-12T15:04:14.542Z,102150.67
2019-04-12T15:06:44.019Z,102149.39
2019-04-12T15:09:14.170Z,102149.39
2019-04-12T15:11:43.880Z,102151.77
2019-04-12T15:14:13.584Z,102150.31
2019-04-12T15:16:44.039Z,102150.83
2019-04-12T15:19:14.196Z,102150.83
2019-04-12T15:21:44.888Z,102158.65
2019-04-12T15:24:14.311Z,102154.18
2019-04-12T15:26:43.979Z,102157.67
2019-04-12T15:29:14.335Z,102148.89
2019-04-12T15:31:43.894Z,102147.97
2019-04-12T15:34:14.273Z,102147.97
2019-04-12T15:36:43.924Z,102158.42
2019-04-12T15:39:14.313Z,102154.63
2019-04-12T15:41:44.024Z,102160.13
2019-04-12T15:44:14.347Z,102160.66
2019-04-12T15:46:44.107Z,102161.32
2019-04-12T15:49:14.247Z,102152.76
2019-04-12T15:51:43.905Z,102157.14
2019-04-12T15:54:14.262Z,102159.06
2019-04-12T15:56:43.646Z,102156.16
2019-04-12T15:59:14.402Z,102144.88
2019-04-12T16:01:44.336Z,102149.67
2019-04-12T16:04:14.355Z,102149.67
2019-04-12T16:06:44.031Z,102153.48
2019-04-12T16:09:19.169Z,102156.36
2019-04-12T16:11:51.982Z,102156.02
2019-04-12T16:14:22.933Z,102160.86
2019-04-12T16:17:30.758Z,102155.02
2019-04-12T16:20:00.737Z,102152.69
2019-04-12T16:22:30.393Z,102152.52
2019-04-12T16:25:00.091Z,102149.05
2019-04-12T16:27:32.718Z,102146.86
2019-04-12T16:30:06.409Z,102155.03
2019-04-12T16:32:40.042Z,102156.19
2019-04-12T16:35:13.715Z,102160.80
2019-04-12T16:38:02.825Z,102183.83
2019-04-12T16:40:32.849Z,102196.78
2019-04-12T16:43:02.356Z,102212.28
2019-04-12T16:45:32.318Z,102217.52
2019-04-12T16:48:01.724Z,102211.95
2019-04-12T16:50:31.129Z,102217.86
2019-04-12T16:53:00.495Z,102219.52
2019-04-12T16:55:30.146Z,102219.27
2019-04-12T16:57:59.519Z,102209.70
2019-04-12T17:00:34.864Z,102213.25
2019-04-12T17:03:05.350Z,102218.67
2019-04-12T17:05:36.249Z,102206.89
2019-04-12T17:08:06.158Z,102198.66
2019-04-12T17:10:35.596Z,102186.82
2019-04-12T17:13:05.782Z,102191.85
2019-04-12T17:15:35.218Z,102180.09
2019-04-12T17:18:04.752Z,102175.34
2019-04-12T17:20:35.201Z,102178.75
2019-04-12T17:23:04.834Z,102169.78
2019-04-12T17:25:34.190Z,102167.48
2019-04-12T17:28:03.562Z,102162.44
2019-04-12T17:30:33.627Z,102165.47
2019-04-12T17:33:03.317Z,102163.59
2019-04-12T17:35:32.832Z,102164.30
2019-04-12T17:38:02.473Z,102164.10
2019-04-12T17:40:32.142Z,102164.44
2019-04-12T17:43:01.506Z,102168.31
2019-04-12T17:45:31.434Z,102168.73
2019-04-12T17:48:00.853Z,102171.70
2019-04-12T17:50:32.189Z,102179.20
2019-04-12T17:53:03.190Z,102181.39
2019-04-12T17:55:37.201Z,102176.89
2019-04-12T17:58:08.763Z,102182.20
2019-04-12T18:00:45.835Z,102179.06
2019-04-12T18:03:15.502Z,102179.92
2019-04-12T18:05:45.126Z,102184.82
2019-04-12T18:08:14.679Z,102184.82
2019-04-12T18:10:44.222Z,102195.55
2019-04-12T18:13:14.578Z,102196.48
2019-04-12T18:15:44.463Z,102196.48
2019-04-12T18:18:14.642Z,102204.55
2019-04-12T18:20:44.297Z,102211.70
2019-04-12T18:23:14.785Z,102211.40
2019-04-12T18:25:44.325Z,102216.02
2019-04-12T18:28:14.584Z,102216.02
2019-04-12T18:30:44.252Z,102212.97
2019-04-12T18:33:14.694Z,102212.97
2019-04-12T18:35:44.615Z,102219.56
2019-04-12T18:38:14.713Z,102222.42
2019-04-12T18:40:44.368Z,102222.60
2019-04-12T18:43:17.064Z,102217.33
2019-04-12T18:45:46.516Z,102214.19
2019-04-12T18:48:16.176Z,102214.48
2019-04-12T18:50:45.554Z,102210.36
2019-04-12T18:53:15.243Z,102220.35
2019-04-12T18:55:44.668Z,102220.35
2019-04-12T18:58:14.803Z,102215.88
2019-04-12T19:00:45.433Z,102210.11
2019-04-12T19:03:14.823Z,102210.53
2019-04-12T19:05:44.744Z,102211.45
2019-04-12T19:08:14.766Z,102211.88
2019-04-12T19:10:44.389Z,102198.31
2019-04-12T19:13:14.760Z,102213.81
2019-04-12T19:15:44.416Z,102211.20
2019-04-12T19:18:14.898Z,102212.61
2019-04-12T19:20:44.385Z,102207.77
2019-04-12T19:23:15.388Z,102211.32
2019-04-12T19:25:49.466Z,102214.60
2019-04-12T19:28:18.839Z,102210.06
2019-04-12T19:30:51.162Z,102213.76
2019-04-12T19:33:32.368Z,102211.38
2019-04-12T19:36:06.421Z,102214.42
2019-04-12T19:38:37.558Z,102218.27
2019-04-12T19:41:07.664Z,102214.04
2019-04-12T19:43:37.629Z,102214.64
2019-04-12T19:46:07.262Z,102212.97
2019-04-12T19:48:37.604Z,102221.51
2019-04-12T19:51:09.328Z,102221.58
2019-04-12T19:53:38.698Z,102224.77
2019-04-12T19:56:08.362Z,102226.59
2019-04-12T19:58:37.763Z,102225.81
2019-04-12T20:01:07.170Z,102231.63
2019-04-12T20:03:36.711Z,102235.27
2019-04-12T20:06:06.325Z,102235.27
2019-04-12T20:08:37.733Z,102232.23
2019-04-12T20:11:07.538Z,102234.05
2019-04-12T20:13:36.909Z,102230.65
2019-04-12T20:16:06.634Z,102233.33
2019-04-12T20:18:36.031Z,102230.72
2019-04-12T20:21:05.645Z,102231.19
2019-04-12T20:23:35.305Z,102232.05
2019-04-12T20:26:04.767Z,102232.47
2019-04-12T20:28:34.431Z,102228.91
2019-04-12T20:31:03.792Z,102228.89
2019-04-12T20:33:33.475Z,102225.32
2019-04-12T20:36:02.841Z,102227.88
2019-04-12T20:38:32.518Z,102219.39
2019-04-12T20:41:02.948Z,102218.48
2019-04-12T20:43:32.823Z,102219.87
2019-04-12T20:46:02.476Z,102224.30
2019-04-12T20:48:31.861Z,102223.46
2019-04-12T20:51:01.785Z,102216.37
2019-04-12T20:53:31.473Z,102224.80
2019-04-12T20:56:00.850Z,102215.03
2019-04-12T20:58:30.685Z,102220.80
2019-04-12T21:01:01.372Z,102218.19
2019-04-12T21:03:30.923Z,102219.52
2019-04-12T21:06:01.722Z,102219.52
2019-04-12T21:08:31.097Z,102221.32
2019-04-12T21:11:00.641Z,102225.32
2019-04-12T21:13:30.389Z,102218.66
2019-04-12T21:15:59.810Z,102225.76
2019-04-12T21:18:29.201Z,102214.73
2019-04-12T21:20:58.925Z,102218.78
2019-04-12T21:23:28.614Z,102217.94
2019-04-12T21:25:57.987Z,102221.09
2019-04-12T21:28:27.959Z,102228.24
2019-04-12T21:30:57.634Z,102228.34
2019-04-12T21:33:28.866Z,102234.22
2019-04-12T21:35:58.094Z,102232.03
2019-04-12T21:38:27.774Z,102234.34
2019-04-12T21:40:57.149Z,102229.40
2019-04-12T21:43:26.767Z,102234.38
2019-04-12T21:45:56.125Z,102235.27
2019-04-12T21:48:28.321Z,102237.88
2019-04-12T21:50:57.758Z,102236.02
2019-04-12T21:53:27.385Z,102235.84
2019-04-12T21:55:56.762Z,102231.78
2019-04-12T21:58:26.492Z,102228.21
2019-04-12T22:00:59.267Z,102228.21
2019-04-12T22:03:40.242Z,102230.83
2019-04-12T22:06:00.689Z,102226.45
2019-04-12T22:08:30.074Z,102226.47
2019-04-12T22:10:59.793Z,102227.44
2019-04-12T22:13:29.476Z,102225.23
2019-04-12T22:15:58.850Z,102229.29
2019-04-12T22:18:28.303Z,102231.00
2019-04-12T22:20:58.101Z,102227.48
2019-04-12T22:23:29.685Z,102215.36
2019-04-12T22:25:59.130Z,102215.36
2019-04-12T22:28:28.849Z,102221.53
2019-04-12T22:30:58.467Z,102221.53
2019-04-12T22:33:28.119Z,102224.25
2019-04-12T22:35:57.800Z,102224.31
2019-04-12T22:38:27.483Z,102219.95
2019-04-12T22:40:56.993Z,102219.58
2019-04-12T22:43:26.418Z,102217.45
2019-04-12T22:45:56.344Z,102219.31
2019-04-12T22:48:25.915Z,102213.30
2019-04-12T22:50:55.282Z,102212.52
2019-04-12T22:53:25.115Z,102211.39
2019-04-12T22:55:54.726Z,102206.61
2019-04-12T22:58:24.470Z,102208.99
2019-04-12T23:00:53.845Z,102213.53
2019-04-12T23:03:23.231Z,102216.77
2019-04-12T23:05:52.861Z,102218.67
2019-04-12T23:08:22.539Z,102215.69
2019-04-12T23:10:51.991Z,102212.66
2019-04-12T23:13:21.633Z,102214.94
2019-04-12T23:15:51.007Z,102216.32
2019-04-12T23:18:20.389Z,102212.00
2019-04-12T23:20:49.953Z,102207.20
2019-04-12T23:23:19.329Z,102212.63
2019-04-12T23:25:50.642Z,102209.17
2019-04-12T23:28:20.626Z,102209.31
2019-04-12T23:30:51.877Z,102209.83
2019-04-12T23:33:22.889Z,102211.72
2019-04-12T23:35:52.253Z,102207.36
2019-04-12T23:38:21.638Z,102210.54
2019-04-12T23:40:51.097Z,102205.31
2019-04-12T23:43:21.449Z,102206.22
2019-04-12T23:45:51.081Z,102202.33
2019-04-12T23:48:20.453Z,102202.80
2019-04-12T23:50:49.951Z,102201.51
2019-04-12T23:53:19.328Z,102198.86
2019-04-12T23:55:49.018Z,102202.93
2019-04-12T23:58:18.399Z,102189.73
